createdAt,value
2022-11-29T00:01:04.565Z,5.23
2022-11-29T00:03:32.301Z,5.21
2022-11-29T00:06:05.540Z,5.17
2022-11-29T00:08:32.071Z,5.09
2022-11-29T00:11:04.069Z,5.11
2022-11-29T00:13:30.590Z,5.08
2022-11-29T00:16:02.134Z,5.07
2022-11-29T00:18:28.566Z,5.08
2022-11-29T00:20:55.009Z,5.07
2022-11-29T00:23:21.502Z,5.11
2022-11-29T00:25:47.958Z,5.10
2022-11-29T00:28:14.391Z,5.12
2022-11-29T00:30:40.869Z,5.10
2022-11-29T00:33:07.475Z,5.15
2022-11-29T00:35:33.903Z,5.19
2022-11-29T00:38:00.428Z,5.27
2022-11-29T00:40:26.901Z,5.33
2022-11-29T00:42:53.439Z,5.37
2022-11-29T00:45:19.928Z,5.41
2022-11-29T00:47:46.367Z,5.43
2022-11-29T00:50:12.804Z,5.42
2022-11-29T00:52:39.205Z,5.43
2022-11-29T00:55:06.214Z,5.43
2022-11-29T00:57:32.706Z,5.42
2022-11-29T00:59:59.125Z,5.39
2022-11-29T01:02:25.859Z,5.42
2022-11-29T01:04:52.356Z,5.41
2022-11-29T01:07:18.841Z,5.41
2022-11-29T01:09:45.302Z,5.40
2022-11-29T01:12:11.827Z,5.36
2022-11-29T01:14:38.362Z,5.30
2022-11-29T01:17:04.839Z,5.26
2022-11-29T01:19:31.437Z,5.21
2022-11-29T01:21:57.889Z,5.19
2022-11-29T01:24:24.425Z,5.18
2022-11-29T01:26:50.912Z,5.13
2022-11-29T01:29:17.383Z,5.17
2022-11-29T01:31:43.876Z,5.20
2022-11-29T01:34:10.654Z,5.14
2022-11-29T01:36:37.152Z,5.04
2022-11-29T01:39:05.847Z,5.01
2022-11-29T01:41:34.615Z,4.99
2022-11-29T01:44:27.953Z,4.94
2022-11-29T01:46:55.059Z,4.99
2022-11-29T01:49:21.455Z,4.97
2022-11-29T01:51:55.428Z,4.94
2022-11-29T01:54:22.606Z,4.95
2022-11-29T01:56:51.688Z,4.94
2022-11-29T01:59:21.888Z,4.91
2022-11-29T02:01:48.407Z,4.92
2022-11-29T02:04:16.097Z,4.92
2022-11-29T02:06:43.267Z,4.82
2022-11-29T02:09:21.062Z,4.82
2022-11-29T02:12:17.043Z,4.80
2022-11-29T02:15:37.669Z,4.81
2022-11-29T02:18:12.093Z,4.76
2022-11-29T02:20:56.930Z,4.66
2022-11-29T02:23:39.432Z,4.61
2022-11-29T02:26:34.206Z,4.53
2022-11-29T02:29:27.092Z,4.51
2022-11-29T02:32:19.609Z,4.51
2022-11-29T02:34:52.102Z,4.45
2022-11-29T02:37:33.724Z,4.42
2022-11-29T02:40:18.310Z,4.35
2022-11-29T02:43:22.322Z,4.38
2022-11-29T02:45:54.588Z,4.38
2022-11-29T02:48:37.600Z,4.35
2022-11-29T02:51:17.800Z,4.36
2022-11-29T02:53:53.766Z,4.36
2022-11-29T02:56:49.619Z,4.34
2022-11-29T02:59:22.569Z,4.34
2022-11-29T03:02:02.488Z,4.32
2022-11-29T03:04:33.246Z,4.28
2022-11-29T03:07:19.104Z,4.23
2022-11-29T03:10:04.873Z,4.19
2022-11-29T03:12:36.636Z,4.20
2022-11-29T03:15:36.149Z,4.15
2022-11-29T03:18:33.359Z,4.11
2022-11-29T03:21:24.428Z,4.11
2022-11-29T03:23:58.733Z,4.09
2022-11-29T03:26:45.616Z,4.12
2022-11-29T03:29:20.709Z,4.09
2022-11-29T03:32:03.569Z,3.97
2022-11-29T03:34:53.022Z,3.95
2022-11-29T03:37:50.121Z,3.96
2022-11-29T03:40:25.242Z,3.94
2022-11-29T03:43:00.020Z,3.96
2022-11-29T03:45:38.650Z,3.97
2022-11-29T03:48:16.519Z,3.96
2022-11-29T03:50:56.759Z,3.94
2022-11-29T03:53:29.114Z,3.88
2022-11-29T03:55:59.969Z,3.84
2022-11-29T03:58:56.960Z,3.79
2022-11-29T04:01:46.614Z,3.76
2022-11-29T04:04:28.061Z,3.73
2022-11-29T04:07:13.298Z,3.70
2022-11-29T04:10:04.548Z,3.59
2022-11-29T04:13:08.341Z,3.53
2022-11-29T04:16:03.027Z,3.51
2022-11-29T04:18:44.852Z,3.47
2022-11-29T04:21:42.254Z,3.43
2022-11-29T04:24:21.023Z,3.43
2022-11-29T04:27:21.434Z,3.40
2022-11-29T04:30:03.581Z,3.35
2022-11-29T04:33:04.552Z,3.28
2022-11-29T04:35:43.113Z,3.31
2022-11-29T04:38:16.848Z,3.33
2022-11-29T04:41:05.980Z,3.27
2022-11-29T04:43:47.340Z,3.28
2022-11-29T04:46:26.899Z,3.27
2022-11-29T04:49:21.929Z,3.28
2022-11-29T04:52:13.040Z,3.32
2022-11-29T04:55:20.794Z,3.31
2022-11-29T04:58:16.410Z,3.24
2022-11-29T05:00:56.048Z,3.24
2022-11-29T05:03:41.430Z,3.22
2022-11-29T05:06:14.031Z,3.22
2022-11-29T05:09:05.189Z,3.21
2022-11-29T05:11:47.622Z,3.18
2022-11-29T05:14:35.855Z,3.17
2022-11-29T05:17:39.759Z,3.19
2022-11-29T05:20:34.083Z,3.20
2022-11-29T05:23:42.140Z,3.12
2022-11-29T05:26:19.576Z,3.09
2022-11-29T05:29:04.285Z,3.03
2022-11-29T05:31:45.911Z,2.99
2022-11-29T05:34:37.548Z,2.98
2022-11-29T05:37:39.096Z,3.03
2022-11-29T05:40:39.247Z,3.03
2022-11-29T05:43:18.704Z,3.01
2022-11-29T05:45:57.567Z,3.02
2022-11-29T05:48:45.216Z,3.01
2022-11-29T05:51:42.180Z,3.00
2022-11-29T05:54:27.311Z,3.03
2022-11-29T05:57:31.249Z,3.05
2022-11-29T06:00:01.087Z,3.04
2022-11-29T06:02:27.592Z,3.07
2022-11-29T06:04:57.178Z,3.03
2022-11-29T06:07:48.364Z,3.07
2022-11-29T06:10:19.742Z,3.03
2022-11-29T06:13:05.643Z,3.02
2022-11-29T06:15:50.861Z,2.99
2022-11-29T06:18:28.528Z,2.88
2022-11-29T06:21:12.536Z,2.92
2022-11-29T06:24:05.888Z,3.01
2022-11-29T06:26:41.262Z,3.03
2022-11-29T06:29:23.680Z,3.02
2022-11-29T06:32:09.904Z,3.08
2022-11-29T06:35:05.256Z,3.09
2022-11-29T06:37:40.509Z,3.03
2022-11-29T06:40:12.040Z,3.04
2022-11-29T06:42:38.609Z,2.96
2022-11-29T06:45:06.109Z,2.96
2022-11-29T06:48:02.690Z,3.05
2022-11-29T06:50:47.717Z,3.10
2022-11-29T06:53:22.586Z,3.13
2022-11-29T06:56:07.447Z,3.14
2022-11-29T06:58:52.443Z,3.11
2022-11-29T07:02:00.309Z,3.10
2022-11-29T07:04:26.737Z,3.14
2022-11-29T07:06:53.603Z,3.21
2022-11-29T07:09:25.504Z,3.31
2022-11-29T07:11:52.241Z,3.32
2022-11-29T07:14:18.930Z,3.38
2022-11-29T07:17:15.299Z,3.43
2022-11-29T07:20:08.804Z,3.49
2022-11-29T07:23:14.109Z,3.57
2022-11-29T07:25:55.946Z,3.60
2022-11-29T07:28:34.419Z,3.64
2022-11-29T07:31:27.469Z,3.70
2022-11-29T07:34:16.472Z,3.73
2022-11-29T07:36:51.711Z,3.76
2022-11-29T07:39:24.891Z,3.80
2022-11-29T07:41:54.310Z,3.83
2022-11-29T07:44:30.613Z,3.88
2022-11-29T07:46:57.042Z,3.92
2022-11-29T07:49:23.476Z,3.93
2022-11-29T07:51:49.958Z,3.99
2022-11-29T07:54:18.821Z,4.06
2022-11-29T07:56:45.664Z,4.12
2022-11-29T07:59:12.912Z,4.18
2022-11-29T08:01:39.863Z,4.20
2022-11-29T08:04:07.844Z,4.25
2022-11-29T08:06:35.387Z,4.30
2022-11-29T08:09:02.276Z,4.36
2022-11-29T08:11:28.724Z,4.37
2022-11-29T08:13:59.931Z,4.40
2022-11-29T08:16:26.650Z,4.44
2022-11-29T08:18:53.164Z,4.46
2022-11-29T08:21:20.278Z,4.45
2022-11-29T08:23:48.394Z,4.47
2022-11-29T08:26:16.064Z,4.52
2022-11-29T08:28:43.019Z,4.55
2022-11-29T08:31:11.839Z,4.57
2022-11-29T08:33:43.200Z,4.56
2022-11-29T08:36:18.901Z,4.65
2022-11-29T08:38:46.254Z,4.71
2022-11-29T08:41:14.574Z,4.77
2022-11-29T08:43:41.553Z,4.81
2022-11-29T08:46:08.219Z,4.82
2022-11-29T08:48:35.669Z,4.85
2022-11-29T08:51:03.041Z,4.88
2022-11-29T08:53:41.244Z,4.90
2022-11-29T08:56:32.181Z,4.87
2022-11-29T08:58:56.531Z,4.93
2022-11-29T09:01:23.054Z,4.96
2022-11-29T09:04:07.000Z,4.99
2022-11-29T09:06:38.865Z,5.00
2022-11-29T09:09:05.982Z,5.00
2022-11-29T09:11:34.455Z,4.97
2022-11-29T09:14:04.034Z,5.02
2022-11-29T09:16:34.290Z,4.98
2022-11-29T09:19:00.861Z,5.01
2022-11-29T09:21:30.031Z,5.07
2022-11-29T09:24:01.744Z,5.10
2022-11-29T09:26:31.169Z,5.14
2022-11-29T09:29:02.777Z,5.11
2022-11-29T09:31:31.137Z,5.11
2022-11-29T09:33:57.656Z,5.12
2022-11-29T09:36:28.485Z,5.13
2022-11-29T09:38:56.591Z,5.17
2022-11-29T09:41:51.937Z,5.25
2022-11-29T09:44:33.541Z,5.33
2022-11-29T09:47:19.143Z,5.34
2022-11-29T09:49:54.691Z,5.32
2022-11-29T09:52:55.091Z,5.31
2022-11-29T09:55:24.452Z,5.30
2022-11-29T09:57:53.479Z,5.35
2022-11-29T10:00:20.644Z,5.40
2022-11-29T10:02:58.335Z,5.37
2022-11-29T10:05:32.504Z,5.37
2022-11-29T10:08:05.975Z,5.41
2022-11-29T10:10:43.136Z,5.33
2022-11-29T10:13:21.369Z,5.28
2022-11-29T10:15:53.016Z,5.34
2022-11-29T10:18:24.098Z,5.33
2022-11-29T10:20:53.640Z,5.38
2022-11-29T10:23:29.343Z,5.26
2022-11-29T10:25:57.916Z,5.33
2022-11-29T10:28:33.476Z,5.32
2022-11-29T10:31:27.441Z,5.36
2022-11-29T10:33:55.624Z,5.37
2022-11-29T10:36:29.608Z,5.37
2022-11-29T10:39:01.220Z,5.37
2022-11-29T10:41:28.139Z,5.42
2022-11-29T10:43:59.706Z,5.45
2022-11-29T10:46:31.051Z,5.40
2022-11-29T10:49:07.976Z,5.37
2022-11-29T10:51:34.933Z,5.30
2022-11-29T10:54:35.942Z,5.20
2022-11-29T10:57:08.406Z,5.30
2022-11-29T10:59:35.079Z,5.35
2022-11-29T11:02:01.939Z,5.40
2022-11-29T11:04:31.843Z,5.43
2022-11-29T11:07:01.397Z,5.39
2022-11-29T11:09:35.896Z,5.38
2022-11-29T11:12:16.930Z,5.38
2022-11-29T11:14:44.718Z,5.38
2022-11-29T11:17:32.609Z,5.43
2022-11-29T11:20:19.715Z,5.53
2022-11-29T11:22:57.944Z,5.49
2022-11-29T11:25:50.046Z,5.49
2022-11-29T11:28:23.802Z,5.55
2022-11-29T11:31:02.808Z,5.57
2022-11-29T11:33:32.726Z,5.65
2022-11-29T11:36:24.995Z,5.68
2022-11-29T11:38:55.916Z,5.63
2022-11-29T11:41:50.670Z,5.56
2022-11-29T11:44:52.328Z,5.60
2022-11-29T11:47:25.689Z,5.57
2022-11-29T11:50:04.057Z,5.53
2022-11-29T11:52:41.322Z,5.56
2022-11-29T11:55:21.464Z,5.59
2022-11-29T11:58:21.245Z,5.65
2022-11-29T12:01:04.469Z,5.60
2022-11-29T12:03:56.515Z,5.53
2022-11-29T12:06:36.929Z,5.53
2022-11-29T12:09:11.689Z,5.47
2022-11-29T12:11:44.100Z,5.46
2022-11-29T12:14:20.063Z,5.45
2022-11-29T12:16:49.135Z,5.43
2022-11-29T12:19:23.725Z,5.39
2022-11-29T12:21:55.845Z,5.37
2022-11-29T12:24:28.201Z,5.31
2022-11-29T12:26:58.921Z,5.34
2022-11-29T12:29:29.223Z,5.36
2022-11-29T12:32:01.692Z,5.35
2022-11-29T12:34:50.674Z,5.32
2022-11-29T12:37:47.571Z,5.29
2022-11-29T12:41:02.621Z,5.26
2022-11-29T12:44:10.381Z,5.34
2022-11-29T12:46:38.429Z,5.42
2022-11-29T12:49:18.357Z,5.40
2022-11-29T12:52:03.547Z,5.39
2022-11-29T12:54:44.075Z,5.39
2022-11-29T12:57:25.038Z,5.42
2022-11-29T13:00:09.041Z,5.42
2022-11-29T13:03:00.595Z,5.50
2022-11-29T13:05:51.854Z,5.54
2022-11-29T13:08:48.676Z,5.54
2022-11-29T13:11:36.163Z,5.56
2022-11-29T13:14:41.452Z,5.52
2022-11-29T13:17:05.405Z,5.50
2022-11-29T13:19:55.356Z,5.50
2022-11-29T13:22:52.557Z,5.48
2022-11-29T13:25:23.559Z,5.54
2022-11-29T13:28:15.359Z,5.53
2022-11-29T13:30:42.115Z,5.51
2022-11-29T13:33:34.424Z,5.50
2022-11-29T13:36:03.787Z,5.50
2022-11-29T13:38:39.306Z,5.52
2022-11-29T13:41:30.901Z,5.48
2022-11-29T13:44:20.336Z,5.47
2022-11-29T13:46:54.600Z,5.56
2022-11-29T13:49:50.012Z,5.66
2022-11-29T13:52:26.542Z,5.70
2022-11-29T13:55:14.612Z,5.71
2022-11-29T14:00:43.791Z,5.68
2022-11-29T14:03:38.444Z,5.70
2022-11-29T14:06:10.005Z,5.74
2022-11-29T14:09:17.393Z,5.78
2022-11-29T14:11:33.886Z,5.81
2022-11-29T14:14:08.872Z,5.80
2022-11-29T14:16:47.653Z,5.78
2022-11-29T14:19:25.214Z,5.75
2022-11-29T14:21:55.962Z,5.78
2022-11-29T14:24:39.488Z,5.77
2022-11-29T14:27:05.945Z,5.70
2022-11-29T14:29:47.346Z,5.70
2022-11-29T14:32:32.059Z,5.69
2022-11-29T14:35:10.657Z,5.64
2022-11-29T14:37:43.866Z,5.67
2022-11-29T14:40:26.248Z,5.68
2022-11-29T14:42:53.505Z,5.64
2022-11-29T14:45:24.760Z,5.59
2022-11-29T14:47:51.194Z,5.64
2022-11-29T14:50:40.144Z,5.59
2022-11-29T14:53:27.465Z,5.53
2022-11-29T14:56:28.796Z,5.48
2022-11-29T14:59:32.810Z,5.47
2022-11-29T15:02:17.502Z,5.46
2022-11-29T15:04:44.974Z,5.43
2022-11-29T15:07:18.568Z,5.44
2022-11-29T15:09:50.068Z,5.40
2022-11-29T15:12:26.726Z,5.40
2022-11-29T15:15:06.223Z,5.44
2022-11-29T15:17:48.950Z,5.45
2022-11-29T15:20:42.974Z,5.45
2022-11-29T15:23:15.114Z,5.42
2022-11-29T15:25:50.003Z,5.42
2022-11-29T15:28:28.230Z,5.41
2022-11-29T15:31:05.090Z,5.43
2022-11-29T15:33:34.391Z,5.47
2022-11-29T15:36:06.915Z,5.45
2022-11-29T15:38:43.429Z,5.46
2022-11-29T15:41:29.972Z,5.44
2022-11-29T15:43:59.361Z,5.45
2022-11-29T15:46:31.849Z,5.40
2022-11-29T15:49:18.204Z,5.37
2022-11-29T15:51:49.575Z,5.37
2022-11-29T15:54:42.226Z,5.41
2022-11-29T15:57:38.319Z,5.43
2022-11-29T16:00:15.673Z,5.42
2022-11-29T16:02:53.633Z,5.44
2022-11-29T16:05:27.700Z,5.46
2022-11-29T16:07:58.269Z,5.44
2022-11-29T16:10:34.960Z,5.43
2022-11-29T16:13:24.732Z,5.43
2022-11-29T16:16:04.834Z,5.42
2022-11-29T16:18:31.652Z,5.46
2022-11-29T16:21:03.556Z,5.45
2022-11-29T16:23:38.301Z,5.45
2022-11-29T16:26:04.644Z,5.46
2022-11-29T16:28:34.561Z,5.45
2022-11-29T16:31:01.269Z,5.47
2022-11-29T16:33:28.012Z,5.48
2022-11-29T16:36:15.761Z,5.46
2022-11-29T16:38:54.343Z,5.46
2022-11-29T16:41:35.285Z,5.42
2022-11-29T16:44:03.509Z,5.32
2022-11-29T16:46:38.665Z,5.26
2022-11-29T16:49:32.603Z,5.30
2022-11-29T16:51:59.448Z,5.32
2022-11-29T16:54:28.634Z,5.34
2022-11-29T16:56:57.110Z,5.30
2022-11-29T16:59:28.037Z,5.27
2022-11-29T17:01:58.072Z,5.28
2022-11-29T17:04:25.550Z,5.26
2022-11-29T17:06:54.110Z,5.18
2022-11-29T17:09:31.520Z,5.26
2022-11-29T17:12:01.644Z,5.18
2022-11-29T17:14:29.385Z,5.21
2022-11-29T17:16:55.949Z,5.20
2022-11-29T17:19:23.722Z,5.24
2022-11-29T17:21:51.711Z,5.25
2022-11-29T17:24:20.995Z,5.20
2022-11-29T17:26:47.426Z,5.16
2022-11-29T17:29:15.855Z,5.16
2022-11-29T17:31:46.419Z,5.12
2022-11-29T17:34:13.292Z,5.10
2022-11-29T17:36:40.429Z,5.13
2022-11-29T17:39:07.187Z,5.14
2022-11-29T17:41:33.841Z,5.00
2022-11-29T17:44:00.815Z,4.89
2022-11-29T17:46:32.690Z,4.99
2022-11-29T17:49:00.968Z,5.05
2022-11-29T17:54:14.652Z,5.10
2022-11-29T17:56:41.106Z,5.17
2022-11-29T17:59:07.606Z,5.19
2022-11-29T18:01:35.935Z,5.16
2022-11-29T18:04:05.126Z,5.19
2022-11-29T18:06:35.908Z,5.22
2022-11-29T18:09:04.145Z,5.21
2022-11-29T18:11:46.824Z,5.20
2022-11-29T18:14:16.631Z,5.21
2022-11-29T18:16:45.433Z,5.28
2022-11-29T18:19:14.934Z,5.23
2022-11-29T18:21:41.371Z,5.28
2022-11-29T18:24:08.310Z,5.30
2022-11-29T18:26:36.484Z,5.32
2022-11-29T18:29:03.849Z,5.28
2022-11-29T18:31:33.279Z,5.29
2022-11-29T18:34:02.010Z,5.31
2022-11-29T18:36:31.329Z,5.35
2022-11-29T18:39:07.352Z,5.33
2022-11-29T18:41:34.276Z,5.35
2022-11-29T18:44:03.911Z,5.34
2022-11-29T18:46:32.668Z,5.35
2022-11-29T18:49:00.947Z,5.37
2022-11-29T18:51:29.100Z,5.40
2022-11-29T18:53:56.215Z,5.40
2022-11-29T18:56:24.398Z,5.39
2022-11-29T18:58:58.670Z,5.38
2022-11-29T19:01:27.717Z,5.38
2022-11-29T19:03:57.251Z,5.39
2022-11-29T19:06:38.885Z,5.35
2022-11-29T19:09:07.933Z,5.31
2022-11-29T19:11:34.871Z,5.31
2022-11-29T19:14:03.961Z,5.33
2022-11-29T19:16:33.413Z,5.32
2022-11-29T19:19:01.019Z,5.32
2022-11-29T19:21:29.857Z,5.28
2022-11-29T19:23:58.733Z,5.28
2022-11-29T19:26:27.163Z,5.32
2022-11-29T19:28:54.060Z,5.33
2022-11-29T19:31:24.984Z,5.29
2022-11-29T19:33:52.659Z,5.32
2022-11-29T19:36:27.553Z,5.37
2022-11-29T19:38:54.635Z,5.33
2022-11-29T19:41:23.489Z,5.26
2022-11-29T19:43:50.542Z,5.25
2022-11-29T19:46:19.859Z,5.28
2022-11-29T19:48:46.633Z,5.26
2022-11-29T19:51:16.468Z,5.26
2022-11-29T19:53:43.685Z,5.29
2022-11-29T19:56:13.294Z,5.18
2022-11-29T19:58:40.046Z,5.20
2022-11-29T20:01:12.159Z,5.13
2022-11-29T20:03:39.661Z,5.17
2022-11-29T20:06:07.533Z,5.03
2022-11-29T20:08:34.671Z,5.10
2022-11-29T20:11:10.942Z,5.08
2022-11-29T20:13:39.219Z,5.17
2022-11-29T20:16:09.825Z,5.20
2022-11-29T20:18:39.267Z,5.25
2022-11-29T20:21:08.921Z,5.24
2022-11-29T20:23:35.599Z,5.31
2022-11-29T20:26:02.238Z,5.34
2022-11-29T20:28:29.259Z,5.27
2022-11-29T20:30:56.680Z,5.30
2022-11-29T20:33:25.366Z,5.31
2022-11-29T20:36:04.564Z,5.33
2022-11-29T20:38:37.325Z,5.34
2022-11-29T20:41:19.538Z,5.32
2022-11-29T20:43:59.886Z,5.34
2022-11-29T20:46:27.217Z,5.37
2022-11-29T20:48:54.889Z,5.37
2022-11-29T20:51:28.529Z,5.40
2022-11-29T20:53:55.178Z,5.40
2022-11-29T20:56:21.778Z,5.40
2022-11-29T20:58:48.369Z,5.43
2022-11-29T21:01:15.721Z,5.46
2022-11-29T21:03:42.519Z,5.35
2022-11-29T21:06:09.160Z,5.36
2022-11-29T21:08:35.799Z,5.36
2022-11-29T21:11:07.452Z,5.40
2022-11-29T21:13:34.528Z,5.39
2022-11-29T21:16:01.735Z,5.34
2022-11-29T21:18:29.723Z,5.35
2022-11-29T21:21:22.778Z,5.36
2022-11-29T21:24:07.663Z,5.38
2022-11-29T21:26:48.109Z,5.41
2022-11-29T21:29:23.349Z,5.42
2022-11-29T21:31:52.756Z,5.34
2022-11-29T21:34:20.737Z,5.32
2022-11-29T21:36:56.417Z,5.37
2022-11-29T21:39:27.288Z,5.29
2022-11-29T21:41:53.700Z,5.17
2022-11-29T21:44:20.576Z,5.24
2022-11-29T21:46:47.383Z,5.28
2022-11-29T21:49:14.044Z,5.29
2022-11-29T21:51:40.783Z,5.25
2022-11-29T21:54:07.232Z,5.25
2022-11-29T21:56:33.896Z,5.32
2022-11-29T21:59:00.507Z,5.26
2022-11-29T22:01:27.757Z,5.22
2022-11-29T22:03:54.888Z,5.23
2022-11-29T22:06:24.377Z,5.24
2022-11-29T22:08:51.035Z,5.24
2022-11-29T22:11:34.370Z,5.28
2022-11-29T22:14:17.420Z,5.31
2022-11-29T22:16:54.252Z,5.33
2022-11-29T22:19:25.415Z,5.34
2022-11-29T22:21:57.127Z,5.35
2022-11-29T22:24:26.319Z,5.33
2022-11-29T22:26:54.270Z,5.32
2022-11-29T22:29:22.073Z,5.35
2022-11-29T22:31:51.814Z,5.35
2022-11-29T22:34:19.613Z,5.36
2022-11-29T22:36:46.540Z,5.37
2022-11-29T22:39:13.167Z,5.35
2022-11-29T22:41:40.984Z,5.32
2022-11-29T22:44:07.439Z,5.29
2022-11-29T22:46:39.722Z,5.19
2022-11-29T22:49:06.416Z,5.18
2022-11-29T22:51:35.703Z,5.19
2022-11-29T22:54:05.370Z,5.09
2022-11-29T22:56:35.890Z,5.08
2022-11-29T22:59:02.979Z,5.07
2022-11-29T23:01:32.027Z,5.11
2022-11-29T23:04:01.176Z,5.13
2022-11-29T23:06:32.732Z,5.14
2022-11-29T23:09:04.482Z,5.08
2022-11-29T23:11:31.262Z,5.02
2022-11-29T23:13:57.712Z,5.03
2022-11-29T23:16:28.126Z,5.07
2022-11-29T23:18:58.261Z,5.09
2022-11-29T23:21:38.890Z,5.13
2022-11-29T23:24:05.487Z,5.17
2022-11-29T23:26:36.592Z,5.13
2022-11-29T23:29:04.448Z,5.13
2022-11-29T23:31:31.628Z,5.08
2022-11-29T23:33:58.733Z,5.13
2022-11-29T23:36:25.795Z,5.16
2022-11-29T23:38:52.670Z,5.17
2022-11-29T23:41:19.193Z,5.12
2022-11-29T23:43:45.717Z,5.14
2022-11-29T23:46:15.201Z,5.13
2022-11-29T23:48:42.011Z,5.12
2022-11-29T23:51:08.977Z,5.08
2022-11-29T23:53:35.561Z,5.07
2022-11-29T23:56:04.978Z,5.01
2022-11-29T23:58:32.810Z,5.03
